Time;durP1;ratioP1;P1;durP2;ratioP2;P2;SDS_P1;SDS_P2;PMS_P1;PMS_P2;Temp;Humidity;BMP_temperature;BMP_pressure;BME280_temperature;BME280_humidity;BME280_pressure;Samples;Min_cycle;Max_cycle;Signal;HPM_P1;HPM_P2
2022/03/15 00:03:51;;;;;;;38.48;23.00;;;;;;;-0.65;59.10;101979.06;3471016;79;20983;-66
2022/03/15 00:08:44;;;;;;;37.28;22.60;;;;;;;-0.67;59.15;101981.88;3530685;79;21006;-67
2022/03/15 00:13:39;;;;;;;34.90;21.33;;;;;;;-0.75;59.21;101973.59;3558612;77;21508;-67
2022/03/15 00:18:32;;;;;;;37.75;22.52;;;;;;;-0.75;59.58;101969.76;3533029;79;20995;-67
2022/03/15 00:23:25;;;;;;;38.08;22.67;;;;;;;-0.79;59.61;101972.44;3544576;79;21608;-67
2022/03/15 00:28:17;;;;;;;39.00;24.20;;;;;;;-0.89;59.05;101962.22;3518296;78;21091;-67
2022/03/15 00:33:12;;;;;;;41.08;22.22;;;;;;;-1.00;59.18;101960.45;3487965;77;20948;-67
2022/03/15 00:38:05;;;;;;;37.70;21.97;;;;;;;-0.95;59.62;101956.59;3559802;78;20999;-67
2022/03/15 00:42:57;;;;;;;35.90;21.73;;;;;;;-1.01;59.42;101959.92;3565993;79;20984;-67
2022/03/15 00:47:53;;;;;;;37.25;22.37;;;;;;;-1.04;59.76;101955.47;3546214;79;20949;-67
2022/03/15 00:52:46;;;;;;;45.20;24.23;;;;;;;-1.09;59.74;101956.73;3546245;77;21015;-66
2022/03/15 00:57:38;;;;;;;42.93;23.62;;;;;;;-1.04;60.28;101945.62;3540250;79;20956;-67
2022/03/15 01:02:30;;;;;;;39.38;22.35;;;;;;;-1.11;60.00;101935.66;3537351;78;20919;-67
2022/03/15 01:07:23;;;;;;;39.80;23.30;;;;;;;-1.06;60.25;101934.39;3499760;78;21054;-67
2022/03/15 01:12:15;;;;;;;38.58;23.27;;;;;;;-1.14;60.01;101937.59;3571467;79;21008;-67
2022/03/15 01:17:07;;;;;;;38.30;21.80;;;;;;;-1.18;60.37;101932.61;3571062;78;21014;-66
2022/03/15 01:22:00;;;;;;;35.10;21.40;;;;;;;-1.17;60.59;101939.48;3596926;79;22050;-67
2022/03/15 01:26:54;;;;;;;38.35;23.27;;;;;;;-1.16;60.58;101931.08;3512070;79;20995;-67
2022/03/15 01:31:48;;;;;;;37.80;21.87;;;;;;;-1.21;60.24;101937.45;3569561;78;20975;-66
2022/03/15 01:36:40;;;;;;;37.35;21.50;;;;;;;-1.35;60.55;101930.30;3575815;78;21018;-66
2022/03/15 01:41:38;;;;;;;39.63;24.57;;;;;;;-1.40;60.53;101941.77;3531244;78;20955;-67
2022/03/15 01:46:30;;;;;;;40.75;23.07;;;;;;;-1.39;61.10;101935.91;3585779;77;21026;-66
2022/03/15 01:51:23;;;;;;;39.15;22.37;;;;;;;-1.40;61.11;101924.79;3576551;78;21576;-67
2022/03/15 01:56:15;;;;;;;40.35;22.82;;;;;;;-1.41;61.05;101928.52;3565246;78;20940;-67
2022/03/15 02:01:07;;;;;;;38.42;23.30;;;;;;;-1.44;61.26;101923.15;3576994;76;21514;-67
2022/03/15 02:06:06;;;;;;;40.55;25.43;;;;;;;-1.51;61.20;101934.87;3536594;77;21456;-67
2022/03/15 02:11:02;;;;;;;42.93;23.50;;;;;;;-1.54;61.28;101930.38;3569452;76;20991;-67
2022/03/15 02:15:54;;;;;;;37.73;22.27;;;;;;;-1.57;61.47;101934.86;3630577;77;21378;-67
2022/03/15 02:20:46;;;;;;;40.45;23.00;;;;;;;-1.63;61.42;101933.04;3560546;79;20994;-67
2022/03/15 02:25:41;;;;;;;39.83;21.30;;;;;;;-1.67;61.51;101932.28;3586129;77;21562;-68
2022/03/15 02:30:34;;;;;;;42.80;23.62;;;;;;;-1.66;61.73;101931.53;3534890;77;20939;-66
2022/03/15 02:35:27;;;;;;;40.20;23.50;;;;;;;-1.69;61.58;101932.53;3611597;77;20959;-67
2022/03/15 02:40:20;;;;;;;36.38;22.35;;;;;;;-1.73;61.69;101927.94;3554852;77;20927;-66
2022/03/15 02:45:14;;;;;;;40.17;22.40;;;;;;;-1.72;61.74;101919.51;3547677;78;21081;-67
2022/03/15 02:50:07;;;;;;;36.95;23.42;;;;;;;-1.78;61.83;101921.55;3547997;77;20986;-67
2022/03/15 02:54:59;;;;;;;37.53;22.70;;;;;;;-1.82;61.84;101938.23;3599823;77;22014;-67
2022/03/15 02:59:56;;;;;;;36.03;22.58;;;;;;;-1.89;61.88;101931.22;3578658;76;20973;-67
2022/03/15 03:04:46;;;;;;;40.90;23.98;;;;;;;-1.93;61.77;101932.22;3614014;77;21201;-66
2022/03/15 03:09:38;;;;;;;37.30;22.50;;;;;;;-1.96;62.10;101932.33;3584225;77;20938;-66
2022/03/15 03:14:30;;;;;;;40.80;21.85;;;;;;;-1.99;62.10;101941.86;3565487;77;21160;-68
2022/03/15 03:19:23;;;;;;;41.50;24.12;;;;;;;-1.97;62.14;101939.09;3591651;79;21037;-67
2022/03/15 03:24:19;;;;;;;37.45;23.35;;;;;;;-1.92;62.41;101938.20;3610825;77;21543;-67
2022/03/15 03:29:09;;;;;;;41.02;21.90;;;;;;;-1.93;62.50;101922.02;3535758;78;21029;-67
2022/03/15 03:34:01;;;;;;;39.18;23.50;;;;;;;-1.99;62.05;101937.16;3546973;79;20942;-66
2022/03/15 03:38:53;;;;;;;39.35;23.00;;;;;;;-2.06;62.44;101936.98;3550764;77;20938;-67
2022/03/15 03:43:45;;;;;;;39.27;22.95;;;;;;;-2.06;62.55;101938.27;3572379;77;20993;-67
2022/03/15 03:48:37;;;;;;;40.20;23.45;;;;;;;-2.08;62.61;101930.87;3566147;79;20937;-67
2022/03/15 03:53:29;;;;;;;45.10;24.43;;;;;;;-2.09;62.55;101932.92;3557438;77;20958;-68
2022/03/15 03:58:22;;;;;;;42.93;24.65;;;;;;;-2.13;62.59;101932.12;3549761;77;20946;-67
2022/03/15 04:03:19;;;;;;;36.40;22.25;;;;;;;-2.17;62.65;101927.52;3559372;77;21551;-68
2022/03/15 04:08:14;;;;;;;40.05;22.85;;;;;;;-2.26;62.68;101933.98;3580511;78;20970;-67
2022/03/15 04:13:07;;;;;;;45.38;25.10;;;;;;;-2.25;62.81;101934.50;3597340;77;21253;-67
2022/03/15 04:18:00;;;;;;;40.03;23.18;;;;;;;-2.23;63.22;101928.28;3575166;77;20978;-67
2022/03/15 04:22:54;;;;;;;42.60;23.35;;;;;;;-2.16;63.08;101924.23;3560720;77;21166;-67
2022/03/15 04:27:46;;;;;;;36.25;22.37;;;;;;;-2.21;62.88;101931.84;3573945;77;21899;-66
2022/03/15 04:32:38;;;;;;;41.33;22.75;;;;;;;-2.27;63.00;101928.74;3550930;77;20978;-67
2022/03/15 04:37:31;;;;;;;45.43;24.52;;;;;;;-2.21;63.24;101930.19;3570929;78;20923;-67
2022/03/15 04:42:23;;;;;;;38.08;23.65;;;;;;;-2.28;63.03;101920.61;3549983;77;21428;-67
2022/03/15 04:47:17;;;;;;;45.50;24.63;;;;;;;-2.28;62.95;101925.70;3607260;77;20880;-68
2022/03/15 04:52:11;;;;;;;38.38;21.60;;;;;;;-2.28;63.27;101928.25;3552326;77;20975;-67
2022/03/15 04:57:03;;;;;;;42.80;24.25;;;;;;;-2.27;63.21;101926.20;3545402;78;20911;-68
2022/03/15 05:01:56;;;;;;;44.65;24.52;;;;;;;-2.33;63.32;101929.98;3513408;78;20880;-67
2022/03/15 05:06:47;;;;;;;50.55;26.62;;;;;;;-2.32;63.51;101925.42;3610301;77;21388;-66
2022/03/15 05:11:44;;;;;;;54.88;25.35;;;;;;;-2.23;63.69;101930.83;3611781;77;20954;-66
2022/03/15 05:16:33;;;;;;;59.03;26.62;;;;;;;-2.20;63.38;101929.80;3569254;78;21123;-67
2022/03/15 05:21:25;;;;;;;47.75;25.40;;;;;;;-2.20;63.43;101928.16;3587689;77;20946;-67
2022/03/15 05:26:18;;;;;;;48.05;26.42;;;;;;;-2.11;63.68;101922.95;3570163;77;21491;-67
2022/03/15 05:31:10;;;;;;;42.03;25.65;;;;;;;-2.02;63.43;101921.23;3580677;77;20974;-67
2022/03/15 05:36:04;;;;;;;48.15;26.50;;;;;;;-2.01;63.33;101931.92;3516027;77;20943;-67
2022/03/15 05:40:56;;;;;;;49.08;25.25;;;;;;;-1.97;63.49;101926.70;3607551;77;21055;-67
2022/03/15 05:45:53;;;;;;;42.17;24.63;;;;;;;-1.86;63.67;101919.98;3616775;77;20961;-66
2022/03/15 05:50:45;;;;;;;46.23;25.13;;;;;;;-1.70;63.69;101919.64;3604364;78;20926;-68
2022/03/15 05:55:38;;;;;;;46.30;26.15;;;;;;;-1.55;63.73;101914.20;3572830;78;20931;-66
2022/03/15 06:00:32;;;;;;;48.17;26.90;;;;;;;-1.45;63.55;101912.42;3595870;77;21709;-67
2022/03/15 06:05:24;;;;;;;50.08;26.12;;;;;;;-1.33;63.62;101921.11;3489662;78;22125;-67
2022/03/15 06:10:21;;;;;;;43.15;26.50;;;;;;;-1.19;63.42;101932.48;3532937;78;21538;-67
2022/03/15 06:15:14;;;;;;;42.73;24.87;;;;;;;-1.10;63.53;101929.80;3529697;78;21115;-67
2022/03/15 06:20:07;;;;;;;44.18;26.60;;;;;;;-0.89;63.73;101923.92;3544497;78;21291;-67
2022/03/15 06:24:59;;;;;;;51.83;26.68;;;;;;;-0.75;63.55;101914.84;3479931;79;20967;-67
2022/03/15 06:29:52;;;;;;;53.55;27.70;;;;;;;-0.52;63.78;101940.07;3590117;78;22115;-67
2022/03/15 06:34:44;;;;;;;45.80;27.55;;;;;;;-0.35;63.73;101919.73;3520275;80;20957;-67
2022/03/15 06:39:36;;;;;;;46.98;29.07;;;;;;;-0.12;63.60;101929.23;3537425;78;21007;-67
2022/03/15 06:44:28;;;;;;;53.87;29.02;;;;;;;0.17;63.43;101940.47;3520243;78;20932;-67
2022/03/15 06:49:20;;;;;;;49.25;29.18;;;;;;;0.54;63.34;101945.90;3511595;78;20973;-67
2022/03/15 06:54:12;;;;;;;56.88;31.55;;;;;;;0.84;63.00;101932.35;3529605;78;21710;-67
2022/03/15 06:59:03;;;;;;;58.80;32.53;;;;;;;1.13;62.70;101930.32;3543400;78;20955;-67
2022/03/15 07:03:55;;;;;;;51.23;30.27;;;;;;;1.35;62.54;101937.03;3534517;78;21021;-67
2022/03/15 07:08:48;;;;;;;53.40;30.75;;;;;;;1.71;62.41;101941.77;3571002;77;20978;-68
2022/03/15 07:13:40;;;;;;;57.62;32.28;;;;;;;2.01;61.82;101933.22;3593681;77;21446;-68
2022/03/15 07:18:32;;;;;;;47.17;29.37;;;;;;;2.31;61.51;101940.91;3589364;78;21804;-67
2022/03/15 07:23:24;;;;;;;46.85;29.00;;;;;;;2.50;60.68;101935.76;3549568;78;20954;-67
2022/03/15 07:28:17;;;;;;;45.58;29.15;;;;;;;2.77;60.73;101928.68;3608475;77;20959;-68
2022/03/15 07:33:09;;;;;;;46.10;28.55;;;;;;;3.10;60.01;101928.27;3527227;77;21025;-69
2022/03/15 07:38:03;;;;;;;39.40;26.73;;;;;;;3.46;59.40;101942.64;3562809;77;21023;-69
2022/03/15 07:42:56;;;;;;;39.18;26.70;;;;;;;3.90;59.36;101945.00;3623695;77;21863;-68
2022/03/15 07:47:49;;;;;;;51.48;28.75;;;;;;;5.09;58.29;101933.81;3543609;78;21511;-69
2022/03/15 07:52:41;;;;;;;38.85;27.05;;;;;;;5.66;57.85;101949.56;3539617;77;21522;-68
2022/03/15 07:57:35;;;;;;;36.85;27.70;;;;;;;9.64;54.21;101922.15;3598035;77;20946;-69
2022/03/15 08:02:27;;;;;;;29.98;26.45;;;;;;;13.79;49.60;101927.03;3599875;78;21120;-69
2022/03/15 08:07:23;;;;;;;31.75;26.90;;;;;;;15.48;47.31;101917.27;3591393;79;21479;-69
2022/03/15 08:12:16;;;;;;;37.25;26.90;;;;;;;15.32;46.07;101920.50;3525339;77;21037;-67
2022/03/15 08:17:08;;;;;;;40.83;30.65;;;;;;;16.06;45.09;101915.98;3575029;77;21493;-68
2022/03/15 08:22:02;;;;;;;66.28;49.98;;;;;;;17.82;42.37;101910.69;3551237;79;21487;-67
2022/03/15 08:26:55;;;;;;;42.38;36.50;;;;;;;19.08;39.14;101896.23;3570866;79;20978;-67
2022/03/15 08:31:47;;;;;;;29.80;24.80;;;;;;;19.51;38.96;101909.40;3584779;79;21558;-68
2022/03/15 08:36:44;;;;;;;35.73;28.87;;;;;;;17.01;40.45;101927.13;3575642;77;21586;-67
2022/03/15 08:41:36;;;;;;;41.23;29.63;;;;;;;15.39;40.95;101922.37;3568002;77;21537;-67
2022/03/15 08:46:28;;;;;;;35.98;26.65;;;;;;;13.78;42.38;101924.85;3547198;79;21025;-68
2022/03/15 08:51:20;;;;;;;35.63;27.55;;;;;;;12.69;43.48;101919.03;3542432;77;20990;-67
2022/03/15 08:56:13;;;;;;;33.75;23.02;;;;;;;12.10;44.37;101912.57;3577024;77;21025;-67
2022/03/15 09:01:05;;;;;;;30.60;23.45;;;;;;;11.86;44.83;101909.19;3587287;77;21410;-67
2022/03/15 09:05:57;;;;;;;31.10;24.18;;;;;;;11.69;45.00;101906.95;3531444;79;20926;-67
2022/03/15 09:10:49;;;;;;;32.73;23.62;;;;;;;11.92;45.17;101902.48;3511617;78;21018;-67
2022/03/15 09:15:41;;;;;;;25.72;19.07;;;;;;;12.36;45.54;101896.39;3503213;79;20994;-67
2022/03/15 09:20:33;;;;;;;20.50;15.88;;;;;;;12.46;45.78;101893.61;3457954;79;20975;-67
2022/03/15 09:25:26;;;;;;;12.63;11.33;;;;;;;13.30;44.97;101885.80;3510016;78;22176;-68
2022/03/15 09:30:19;;;;;;;12.88;11.30;;;;;;;13.92;45.05;101883.34;3509357;79;21043;-69
2022/03/15 09:35:13;;;;;;;14.90;13.05;;;;;;;15.99;43.38;101871.72;3507996;78;20982;-67
2022/03/15 09:40:09;;;;;;;15.25;12.18;;;;;;;17.74;40.95;101872.92;3554487;79;20973;-68
2022/03/15 09:45:04;;;;;;;13.87;11.20;;;;;;;16.74;41.78;101883.52;3504866;79;21074;-70
2022/03/15 09:49:59;;;;;;;13.32;12.00;;;;;;;15.89;42.32;101881.64;3461958;80;21007;-70
2022/03/15 09:54:54;;;;;;;15.75;13.25;;;;;;;15.25;42.81;101894.62;3471669;79;20944;-68
2022/03/15 09:59:50;;;;;;;14.30;12.55;;;;;;;14.04;43.96;101904.53;3463541;78;21481;-67
2022/03/15 10:04:42;;;;;;;10.43;9.33;;;;;;;13.07;45.31;101898.27;3572137;78;20970;-68
2022/03/15 10:09:35;;;;;;;39.58;10.85;;;;;;;12.45;46.17;101900.08;3545099;78;21865;-67
2022/03/15 10:14:27;;;;;;;10.95;8.65;;;;;;;11.87;46.68;101905.75;3593283;78;21610;-67
2022/03/15 10:19:19;;;;;;;11.65;9.60;;;;;;;11.34;47.53;101909.32;3609108;77;21521;-67
2022/03/15 10:24:17;;;;;;;10.53;8.80;;;;;;;11.10;48.29;101904.16;3572453;77;21033;-67
2022/03/15 10:29:13;;;;;;;10.08;9.03;;;;;;;10.87;48.75;101905.98;3554456;78;21528;-68
2022/03/15 10:34:12;;;;;;;13.38;9.48;;;;;;;10.76;49.32;101904.73;3541062;78;21068;-69
2022/03/15 10:39:08;;;;;;;10.58;8.65;;;;;;;10.66;49.68;101891.41;3511344;77;21111;-67
2022/03/15 10:44:01;;;;;;;12.33;8.55;;;;;;;10.62;50.14;101888.23;3594151;78;20941;-67
2022/03/15 10:49:03;;;;;;;11.38;8.98;;;;;;;10.52;50.71;101883.53;3600741;78;20960;-68
2022/03/15 10:54:03;;;;;;;11.75;9.28;;;;;;;10.47;50.88;101879.45;3567705;77;21006;-67
2022/03/15 10:59:03;;;;;;;17.95;10.50;;;;;;;10.45;51.25;101877.64;3587507;77;21208;-68
2022/03/15 11:04:10;;;;;;;12.53;10.20;;;;;;;10.54;51.19;101867.56;3561355;78;21448;-68
2022/03/15 11:09:28;;;;;;;14.53;9.98;;;;;;;10.78;51.33;101864.04;3587901;78;20928;-68
2022/03/15 11:14:45;;;;;;;12.40;11.10;;;;;;;11.26;51.42;101848.29;3600226;78;20924;-67
2022/03/15 11:19:46;;;;;;;17.80;14.45;;;;;;;11.59;50.88;101842.39;3556738;78;22201;-70
2022/03/15 11:24:44;;;;;;;14.03;11.75;;;;;;;11.77;50.66;101842.06;3565133;78;49633;-68
2022/03/15 11:29:40;;;;;;;14.30;11.50;;;;;;;11.98;50.61;101826.19;3579595;77;20955;-68
2022/03/15 11:34:34;;;;;;;13.48;11.70;;;;;;;12.24;50.23;101822.16;3584390;78;20970;-69
2022/03/15 11:39:26;;;;;;;13.53;11.22;;;;;;;12.50;50.15;101813.72;3586610;77;20970;-67
2022/03/15 11:44:27;;;;;;;14.70;11.80;;;;;;;12.89;49.09;101806.02;3546774;77;21010;-68
2022/03/15 11:49:42;;;;;;;14.05;11.73;;;;;;;13.27;48.77;101793.03;3580724;77;21999;-67
2022/03/15 11:55:02;;;;;;;12.85;11.55;;;;;;;15.01;46.68;101785.98;3584769;79;20966;-68
2022/03/15 11:59:56;;;;;;;17.12;12.35;;;;;;;15.06;45.77;101776.45;3557805;77;20964;-67
2022/03/15 12:04:49;;;;;;;14.95;13.10;;;;;;;16.01;45.49;101779.94;3614230;77;20915;-69
2022/03/15 12:09:47;;;;;;;16.42;13.32;;;;;;;16.29;44.14;101773.66;3513272;78;21002;-67
2022/03/15 12:14:52;;;;;;;19.40;14.07;;;;;;;16.12;44.08;101769.13;3523000;78;20888;-67
2022/03/15 12:19:47;;;;;;;14.78;13.18;;;;;;;16.03;43.46;101762.91;3556168;79;20967;-67
2022/03/15 12:24:46;;;;;;;19.50;15.50;;;;;;;15.81;44.09;101756.11;3555408;77;20939;-69
2022/03/15 12:29:38;;;;;;;14.23;12.82;;;;;;;15.63;44.14;101753.67;3570788;79;21011;-69
2022/03/15 12:34:33;;;;;;;16.62;13.38;;;;;;;15.79;44.09;101749.53;3584905;79;21005;-68
2022/03/15 12:39:30;;;;;;;21.40;16.80;;;;;;;15.90;43.76;101757.94;3551788;78;20997;-69
2022/03/15 12:44:46;;;;;;;13.68;12.20;;;;;;;15.38;43.58;101738.47;3600519;77;21717;-69
2022/03/15 12:49:38;;;;;;;13.28;11.88;;;;;;;15.20;43.36;101726.90;3582372;77;21586;-68
2022/03/15 12:54:32;;;;;;;14.80;11.85;;;;;;;15.31;43.45;101723.52;3539723;79;21005;-68
2022/03/15 12:59:25;;;;;;;14.07;12.68;;;;;;;14.77;43.73;101727.58;3572089;79;20994;-70
2022/03/15 13:04:19;;;;;;;13.72;12.33;;;;;;;14.62;44.21;101728.19;3587952;77;21843;-68
2022/03/15 13:09:24;;;;;;;13.28;11.57;;;;;;;14.94;44.08;101709.92;3610944;77;20947;-69
2022/03/15 13:14:23;;;;;;;15.20;13.65;;;;;;;14.99;44.30;101708.27;3635322;77;20907;-68
2022/03/15 13:19:29;;;;;;;13.93;12.47;;;;;;;15.08;44.05;101708.39;3587523;77;20974;-70
2022/03/15 13:24:23;;;;;;;14.55;12.73;;;;;;;15.21;44.43;101693.28;3629150;78;20997;-70
2022/03/15 13:29:15;;;;;;;14.70;13.20;;;;;;;15.16;44.45;101704.12;3565680;78;21558;-69
2022/03/15 13:34:10;;;;;;;14.50;12.47;;;;;;;15.33;44.27;101696.94;3569284;78;20990;-68
2022/03/15 13:39:10;;;;;;;16.20;13.95;;;;;;;15.02;44.42;101687.33;3592269;77;20966;-69
2022/03/15 13:44:06;;;;;;;16.60;13.68;;;;;;;15.19;44.73;101681.91;3607953;77;21074;-68
2022/03/15 13:49:00;;;;;;;25.97;15.83;;;;;;;15.36;44.25;101678.20;3592231;78;20911;-69
2022/03/15 13:54:12;;;;;;;24.43;16.40;;;;;;;15.37;44.10;101674.70;3535857;78;22208;-69
2022/03/15 13:59:08;;;;;;;15.40;13.90;;;;;;;15.39;43.66;101679.97;3594631;77;21487;-69
2022/03/15 14:04:10;;;;;;;23.98;16.60;;;;;;;14.22;44.29;101683.45;3557398;78;20970;-69
2022/03/15 14:09:08;;;;;;;46.20;38.78;;;;;;;13.51;45.08;101686.03;3615138;77;20946;-68
2022/03/15 14:14:14;;;;;;;60.40;36.42;;;;;;;13.07;45.92;101689.41;3549699;77;20966;-68
2022/03/15 14:19:04;;;;;;;18.90;14.95;;;;;;;12.81;46.48;101680.13;3559389;77;21134;-68
2022/03/15 14:23:57;;;;;;;16.50;14.00;;;;;;;12.51;46.67;101679.85;3618336;77;21491;-67
2022/03/15 14:29:11;;;;;;;22.00;13.45;;;;;;;12.33;47.45;101676.37;3620774;77;20965;-69
2022/03/15 14:34:04;;;;;;;52.15;34.50;;;;;;;12.27;47.82;101677.10;3607867;77;21495;-67
2022/03/15 14:38:56;;;;;;;22.35;17.85;;;;;;;12.20;48.20;101677.36;3630324;77;20970;-68
2022/03/15 14:43:52;;;;;;;19.35;15.75;;;;;;;12.21;48.29;101678.23;3616797;78;21002;-67
2022/03/15 14:48:49;;;;;;;19.27;17.17;;;;;;;12.35;48.21;101670.77;3567753;77;20978;-68
2022/03/15 14:53:42;;;;;;;26.52;19.07;;;;;;;12.32;48.00;101668.07;3590236;77;20985;-69
2022/03/15 14:58:37;;;;;;;18.57;15.05;;;;;;;12.23;48.31;101661.33;3583891;78;21443;-69
2022/03/15 15:03:30;;;;;;;17.95;14.28;;;;;;;12.33;48.54;101654.20;3563761;77;21001;-67
2022/03/15 15:08:26;;;;;;;17.40;15.55;;;;;;;12.32;48.54;101647.20;3575645;79;20978;-68
2022/03/15 15:13:20;;;;;;;21.17;14.93;;;;;;;12.25;48.43;101632.25;3536577;79;20954;-70
2022/03/15 15:18:13;;;;;;;25.72;17.17;;;;;;;12.22;48.87;101632.20;3502672;77;20991;-67
2022/03/15 15:23:09;;;;;;;24.82;17.50;;;;;;;12.20;48.23;101629.13;3554322;79;21041;-68
2022/03/15 15:28:00;;;;;;;18.17;16.27;;;;;;;12.04;48.70;101626.98;3581141;77;20930;-68
2022/03/15 15:32:54;;;;;;;28.45;19.05;;;;;;;11.72;48.75;101629.59;3584151;79;21518;-69
2022/03/15 15:37:48;;;;;;;45.95;24.75;;;;;;;11.42;49.29;101623.99;3605893;77;21032;-68
2022/03/15 15:42:40;;;;;;;91.40;39.80;;;;;;;11.09;49.53;101630.83;3589370;77;21497;-68
2022/03/15 15:47:39;;;;;;;149.07;56.15;;;;;;;10.73;50.05;101630.19;3594004;77;21465;-67
2022/03/15 15:52:27;;;;;;;117.87;41.95;;;;;;;10.43;50.24;101627.11;3522598;77;20919;-68
2022/03/15 15:57:22;;;;;;;83.87;33.63;;;;;;;10.10;50.80;101631.22;3545160;77;21842;-68
2022/03/15 16:02:16;;;;;;;76.75;27.87;;;;;;;9.72;51.19;101628.59;3524149;77;21454;-68
2022/03/15 16:07:19;;;;;;;31.27;14.30;;;;;;;9.39;51.64;101620.09;3580412;78;21259;-68
2022/03/15 16:12:07;;;;;;;26.68;13.60;;;;;;;9.10;51.81;101622.89;3576385;77;20957;-69
2022/03/15 16:16:58;;;;;;;26.73;12.20;;;;;;;8.83;52.40;101625.32;3534785;77;20907;-68
2022/03/15 16:21:50;;;;;;;23.95;13.43;;;;;;;8.63;52.89;101625.84;3596365;77;21053;-68
2022/03/15 16:26:42;;;;;;;32.63;13.22;;;;;;;8.49;53.44;101617.52;3592184;78;20955;-68
2022/03/15 16:31:42;;;;;;;46.80;16.77;;;;;;;8.39;53.71;101608.47;3564494;77;22264;-68
2022/03/15 16:36:35;;;;;;;99.13;20.25;;;;;;;8.14;53.90;101615.23;3582591;77;20970;-68
2022/03/15 16:41:31;;;;;;;38.38;12.37;;;;;;;8.13;54.13;101624.23;3619511;77;21021;-68
2022/03/15 16:46:22;;;;;;;20.88;11.10;;;;;;;8.13;54.13;101624.23;3606958;77;21043;-68
2022/03/15 16:51:15;;;;;;;22.15;10.38;;;;;;;8.00;54.62;101618.55;3523620;78;21642;-68
2022/03/15 16:56:10;;;;;;;24.05;11.63;;;;;;;7.94;54.95;101613.13;3532432;79;20959;-68
2022/03/15 17:01:01;;;;;;;34.27;14.10;;;;;;;7.87;55.18;101617.57;3477160;79;21024;-68
2022/03/15 17:05:53;;;;;;;28.98;11.20;;;;;;;7.66;55.97;101604.59;3395142;80;22434;-67
2022/03/15 17:10:46;;;;;;;25.10;12.88;;;;;;;7.66;55.97;101604.59;3544369;79;21778;-67
2022/03/15 17:15:46;;;;;;;15.60;10.65;;;;;;;7.56;55.99;101616.23;3542853;78;21310;-68
2022/03/15 17:20:33;;;;;;;14.20;11.00;;;;;;;7.47;56.13;101618.42;3524002;79;20941;-68
2022/03/15 17:25:27;;;;;;;13.35;9.83;;;;;;;7.43;56.39;101611.34;3518847;79;21013;-67
2022/03/15 17:30:21;;;;;;;14.65;10.60;;;;;;;7.33;56.87;101591.05;3513720;78;21102;-68
2022/03/15 17:35:16;;;;;;;13.43;10.57;;;;;;;7.33;56.87;101591.05;3469935;80;21015;-68
2022/03/15 17:40:11;;;;;;;12.30;10.23;;;;;;;7.29;56.99;101587.86;3528162;78;20975;-68
2022/03/15 17:45:10;;;;;;;28.57;11.80;;;;;;;7.04;57.36;101579.88;3551101;79;20935;-68
2022/03/15 17:50:01;;;;;;;16.85;9.60;;;;;;;7.04;57.36;101579.88;3484012;79;20934;-68
2022/03/15 17:54:55;;;;;;;15.98;10.68;;;;;;;6.95;57.43;101577.30;3502786;79;21024;-68
2022/03/15 17:59:58;;;;;;;15.18;9.48;;;;;;;6.77;57.45;101574.34;3524078;78;20959;-68
2022/03/15 18:04:58;;;;;;;16.73;11.50;;;;;;;6.63;57.99;101571.52;3511421;77;20993;-67
2022/03/15 18:09:45;;;;;;;42.78;13.72;;;;;;;6.48;58.19;101567.41;3530775;77;21005;-67
2022/03/15 18:14:41;;;;;;;46.20;12.90;;;;;;;6.39;58.30;101560.52;3621006;77;20950;-68
2022/03/15 18:19:32;;;;;;;18.85;11.83;;;;;;;6.27;58.58;101561.23;3581027;78;21409;-68
2022/03/15 18:24:25;;;;;;;27.85;13.60;;;;;;;6.22;58.98;101560.12;3528022;77;21073;-67
2022/03/15 18:29:21;;;;;;;23.35;13.45;;;;;;;6.08;58.94;101557.77;3561287;77;20967;-67
2022/03/15 18:34:13;;;;;;;28.42;14.28;;;;;;;5.97;59.16;101549.00;3543028;77;21445;-68
2022/03/15 18:39:06;;;;;;;24.43;14.75;;;;;;;5.87;59.38;101543.78;3593944;77;20943;-67
2022/03/15 18:43:59;;;;;;;29.75;13.75;;;;;;;5.77;59.93;101541.55;3535334;77;21142;-67
2022/03/15 18:48:51;;;;;;;30.62;16.48;;;;;;;5.71;59.86;101532.69;3554801;77;21053;-68
2022/03/15 18:53:43;;;;;;;30.02;16.40;;;;;;;5.59;59.85;101518.30;3567686;77;21123;-67
2022/03/15 18:58:36;;;;;;;41.80;19.02;;;;;;;5.46;60.30;101512.93;3579131;77;21521;-67
2022/03/15 19:03:35;;;;;;;43.78;22.60;;;;;;;5.38;60.47;101502.62;3585512;77;20970;-67
2022/03/15 19:08:38;;;;;;;36.75;22.07;;;;;;;5.31;60.98;101502.32;3537905;77;20991;-67
2022/03/15 19:13:24;;;;;;;45.08;22.62;;;;;;;5.22;61.23;101497.08;3546413;77;21473;-67
2022/03/15 19:18:22;;;;;;;35.68;22.67;;;;;;;5.13;61.24;101493.25;3526273;77;21321;-67
2022/03/15 19:23:13;;;;;;;41.73;22.35;;;;;;;5.02;61.49;101494.77;3580003;77;20943;-67
2022/03/15 19:28:08;;;;;;;50.52;23.90;;;;;;;4.89;61.39;101494.13;3593239;77;20916;-67
2022/03/15 19:33:01;;;;;;;38.67;22.85;;;;;;;4.74;61.51;101501.07;3592121;77;20962;-67
2022/03/15 19:37:55;;;;;;;38.67;20.02;;;;;;;4.56;61.82;101500.56;3603997;77;20983;-67
2022/03/15 19:42:50;;;;;;;38.48;21.70;;;;;;;4.45;61.89;101501.66;3604107;77;20954;-68
2022/03/15 19:47:47;;;;;;;46.98;22.02;;;;;;;4.32;61.97;101494.08;3572295;77;21413;-67
2022/03/15 19:52:37;;;;;;;60.05;26.42;;;;;;;4.16;61.97;101497.08;3595058;77;21488;-67
2022/03/15 19:57:32;;;;;;;53.30;26.85;;;;;;;4.03;62.14;101486.92;3556375;77;21594;-67
2022/03/15 20:02:27;;;;;;;48.50;24.43;;;;;;;3.91;62.49;101483.66;3568396;77;21130;-68
2022/03/15 20:07:33;;;;;;;39.18;25.02;;;;;;;3.81;62.69;101465.14;3488082;77;20995;-68
2022/03/15 20:12:21;;;;;;;45.08;27.75;;;;;;;3.69;62.94;101454.16;3556094;77;21011;-67
2022/03/15 20:17:09;;;;;;;53.85;28.32;;;;;;;3.56;63.28;101451.30;3584476;77;21038;-68
2022/03/15 20:22:03;;;;;;;55.05;31.97;;;;;;;3.46;63.17;101445.53;3598128;77;20954;-67
2022/03/15 20:26:55;;;;;;;45.20;26.95;;;;;;;3.35;63.18;101462.50;3583851;78;21218;-67
2022/03/15 20:31:48;;;;;;;67.00;36.70;;;;;;;3.22;62.89;101478.02;3611953;77;20979;-67
2022/03/15 20:36:44;;;;;;;66.62;38.75;;;;;;;3.19;63.62;101476.55;3581391;77;20943;-67
2022/03/15 20:41:36;;;;;;;66.17;37.53;;;;;;;3.17;63.94;101471.72;3607642;77;20951;-67
2022/03/15 20:46:29;;;;;;;63.48;38.73;;;;;;;3.02;63.63;101461.03;3580130;77;20971;-67
2022/03/15 20:51:21;;;;;;;57.62;34.92;;;;;;;3.00;64.19;101453.59;3540373;77;21116;-67
2022/03/15 20:56:17;;;;;;;60.05;34.88;;;;;;;2.93;63.58;101441.19;3537983;77;20955;-68
2022/03/15 21:01:10;;;;;;;53.10;34.50;;;;;;;2.81;63.74;101431.50;3596077;77;22187;-67
2022/03/15 21:06:07;;;;;;;44.00;30.72;;;;;;;2.71;64.00;101425.31;3569607;78;20963;-68
2022/03/15 21:10:59;;;;;;;53.52;34.20;;;;;;;2.61;64.32;101428.61;3603480;77;22054;-68
2022/03/15 21:15:55;;;;;;;45.63;30.95;;;;;;;2.53;64.21;101425.97;3630339;76;22416;-68
2022/03/15 21:20:46;;;;;;;44.98;30.57;;;;;;;2.46;64.09;101434.09;3582135;77;20952;-68
2022/03/15 21:25:44;;;;;;;47.85;31.87;;;;;;;2.34;64.39;101439.34;3583089;77;20974;-69
2022/03/15 21:30:34;;;;;;;48.95;35.73;;;;;;;2.34;64.79;101433.33;3559199;77;21027;-69
2022/03/15 21:35:26;;;;;;;48.60;31.17;;;;;;;2.39;65.21;101433.22;3501608;77;20894;-69
2022/03/15 21:40:18;;;;;;;52.80;33.63;;;;;;;2.36;64.83;101427.89;3578728;77;20973;-69
2022/03/15 21:45:14;;;;;;;52.35;33.88;;;;;;;2.32;65.02;101429.79;3549129;77;21659;-69
2022/03/15 21:50:11;;;;;;;55.08;35.17;;;;;;;2.32;65.18;101427.22;3586640;77;20975;-69
2022/03/15 21:55:08;;;;;;;51.10;35.20;;;;;;;2.27;65.41;101422.70;3602281;77;20911;-69
2022/03/15 22:00:04;;;;;;;55.55;36.50;;;;;;;2.24;65.21;101421.22;3508568;77;20951;-69
2022/03/15 22:04:56;;;;;;;60.92;35.88;;;;;;;2.17;65.25;101420.35;3575954;77;21523;-69
2022/03/15 22:09:48;;;;;;;53.83;35.70;;;;;;;2.17;65.54;101408.80;3537975;77;20967;-69
2022/03/15 22:14:42;;;;;;;59.48;36.85;;;;;;;2.14;65.48;101403.48;3629337;77;21559;-69
2022/03/15 22:19:34;;;;;;;57.23;35.75;;;;;;;2.10;65.70;101406.66;3604480;77;21187;-69
2022/03/15 22:24:27;;;;;;;57.15;40.00;;;;;;;2.13;65.93;101406.85;3490243;79;20987;-69